Time;durP1;ratioP1;P1;durP2;ratioP2;P2;SDS_P1;SDS_P2;PMS_P1;PMS_P2;Temp;Humidity;BMP_temperature;BMP_pressure;BME280_temperature;BME280_humidity;BME280_pressure;Samples;Min_cycle;Max_cycle;Signal;HPM_P1;HPM_P2
2021/01/24 00:23:53;;;;;;;24.08;16.27;;;3.30;98.30;;;;;;4917513;24;20203;-81
2021/01/24 00:25:59;;;;;;;22.52;14.43;;;3.40;98.30;;;;;;4931028;24;20209;-81
2021/01/24 00:28:07;;;;;;;23.58;14.05;;;3.30;98.30;;;;;;4962661;24;20255;-81
2021/01/24 00:30:21;;;;;;;21.77;15.00;;;3.30;98.30;;;;;;4959339;24;20215;-80
2021/01/24 00:32:32;;;;;;;19.33;13.85;;;3.30;98.30;;;;;;5013281;23;20240;-80
2021/01/24 00:34:39;;;;;;;21.92;13.52;;;3.30;98.30;;;;;;5070454;23;20247;-80
2021/01/24 00:36:41;;;;;;;19.27;12.70;;;3.30;98.30;;;;;;5078758;23;20196;-80
2021/01/24 00:38:43;;;;;;;21.58;14.23;;;3.30;98.30;;;;;;5070721;23;20307;-81
2021/01/24 00:40:46;;;;;;;19.27;12.93;;;3.30;98.30;;;;;;5070887;23;20339;-81
2021/01/24 00:42:48;;;;;;;23.02;14.80;;;3.30;98.30;;;;;;5071411;23;20220;-80
2021/01/24 00:44:50;;;;;;;19.30;14.52;;;3.20;98.30;;;;;;5096167;23;20196;-80
2021/01/24 00:46:53;;;;;;;23.13;13.70;;;3.20;98.30;;;;;;5106588;23;20196;-80
2021/01/24 00:48:55;;;;;;;21.15;14.30;;;3.20;98.30;;;;;;5106661;23;20461;-81
2021/01/24 00:50:57;;;;;;;20.13;13.68;;;3.20;98.30;;;;;;5107360;23;20235;-80
2021/01/24 00:52:59;;;;;;;21.48;14.45;;;3.20;98.30;;;;;;5108571;23;20203;-80
2021/01/24 00:55:02;;;;;;;26.52;15.40;;;3.20;98.30;;;;;;5099704;23;20211;-81
2021/01/24 00:57:08;;;;;;;22.63;14.82;;;3.20;98.30;;;;;;5107444;23;20238;-78
2021/01/24 00:59:10;;;;;;;20.25;13.88;;;3.20;98.30;;;;;;5098660;23;20218;-78
2021/01/24 01:01:14;;;;;;;23.67;16.00;;;3.20;98.30;;;;;;5107245;23;20242;-79
2021/01/24 01:03:17;;;;;;;19.30;13.57;;;3.20;98.30;;;;;;5107068;23;20270;-79
2021/01/24 01:05:20;;;;;;;22.48;14.77;;;3.20;98.30;;;;;;5107658;23;20688;-79
2021/01/24 01:07:22;;;;;;;20.02;13.80;;;3.10;98.30;;;;;;5104165;23;20523;-79
2021/01/24 01:09:24;;;;;;;23.15;14.48;;;3.00;98.30;;;;;;5105970;23;20203;-79
2021/01/24 01:11:27;;;;;;;21.50;14.05;;;3.00;98.30;;;;;;5105017;23;20207;-79
2021/01/24 01:13:30;;;;;;;25.75;15.77;;;3.00;98.30;;;;;;5104499;23;20203;-79
2021/01/24 01:15:37;;;;;;;18.55;13.02;;;3.10;98.30;;;;;;5105291;23;20227;-79
2021/01/24 01:17:40;;;;;;;23.88;14.52;;;3.20;98.30;;;;;;5102737;23;20200;-78
2021/01/24 01:19:42;;;;;;;18.02;14.00;;;3.20;98.30;;;;;;5103128;23;20256;-79
2021/01/24 01:21:44;;;;;;;23.80;14.52;;;3.20;98.30;;;;;;5103799;23;20207;-79
2021/01/24 01:23:46;;;;;;;23.13;15.48;;;3.20;98.30;;;;;;5103638;23;20211;-80
2021/01/24 01:28:14;;;;;;;24.10;13.65;;;3.20;98.30;;;;;;5091822;23;20619;-80
2021/01/24 01:30:38;;;;;;;20.38;13.80;;;3.20;98.30;;;;;;5107600;23;20207;-80
2021/01/24 01:32:49;;;;;;;20.70;13.65;;;3.20;98.30;;;;;;5108552;23;20262;-80
2021/01/24 01:34:59;;;;;;;26.40;14.23;;;3.20;98.30;;;;;;5108132;23;20207;-82
2021/01/24 01:37:17;;;;;;;17.70;13.13;;;3.20;98.30;;;;;;5108934;23;20438;-80
2021/01/24 01:39:28;;;;;;;19.48;14.70;;;3.20;98.30;;;;;;5110230;23;20451;-80
2021/01/24 01:44:38;;;;;;;24.73;14.50;;;3.30;98.30;;;;;;5087782;23;20400;-80
2021/01/24 01:47:01;;;;;;;18.95;12.88;;;3.30;98.30;;;;;;5109039;23;20546;-80
2021/01/24 01:49:14;;;;;;;20.88;13.90;;;3.30;98.30;;;;;;5108985;23;20208;-80
2021/01/24 01:51:35;;;;;;;22.35;14.20;;;3.20;98.30;;;;;;5110282;23;20199;-80
2021/01/24 01:53:57;;;;;;;21.00;14.30;;;3.20;98.30;;;;;;5109981;23;20614;-80
2021/01/24 01:56:22;;;;;;;24.50;14.23;;;3.20;98.30;;;;;;5112789;23;20205;-80
2021/01/24 02:01:47;;;;;;;22.58;13.38;;;3.20;98.30;;;;;;5110235;23;20207;-80
2021/01/24 02:13:38;;;;;;;20.20;14.52;;;3.10;98.30;;;;;;4996025;23;20243;-80
2021/01/24 02:16:35;;;;;;;22.77;14.80;;;3.10;98.30;;;;;;4995182;23;20290;-80
2021/01/24 02:27:36;;;;;;;;;;;;;;;;;;;;;
2021/01/24 02:30:37;;;;;;;20.17;14.65;;;3.20;98.30;;;;;;4961137;24;20264;-81
2021/01/24 02:33:24;;;;;;;20.83;15.30;;;3.10;98.30;;;;;;4947680;24;20216;-80
2021/01/24 02:35:47;;;;;;;20.80;14.07;;;3.10;98.30;;;;;;5010289;23;20211;-81
2021/01/24 02:44:40;;;;;;;21.05;14.35;;;3.00;98.30;;;;;;4947448;23;20246;-81
2021/01/24 02:46:49;;;;;;;23.53;15.77;;;3.10;98.30;;;;;;5010302;23;20202;-80
2021/01/24 02:49:03;;;;;;;20.40;14.40;;;3.10;98.30;;;;;;5008352;23;20461;-80
2021/01/24 02:51:14;;;;;;;22.25;14.57;;;3.10;98.30;;;;;;5008427;23;20214;-80
2021/01/24 02:54:05;;;;;;;22.23;14.05;;;3.00;98.30;;;;;;5009298;23;20745;-81
2021/01/24 02:56:30;;;;;;;23.52;15.75;;;3.00;98.30;;;;;;5012977;23;20431;-81
2021/01/24 02:59:15;;;;;;;23.50;15.80;;;2.90;98.30;;;;;;5011418;23;20262;-81
2021/01/24 03:04:11;;;;;;;25.70;17.42;;;3.00;98.30;;;;;;4907194;24;20208;-80
2021/01/24 03:06:14;;;;;;;18.33;13.52;;;2.90;98.30;;;;;;4929245;24;20216;-80
2021/01/24 03:08:17;;;;;;;24.00;14.75;;;2.90;98.30;;;;;;4928621;24;20219;-79
2021/01/24 03:10:20;;;;;;;22.33;15.88;;;2.80;98.30;;;;;;4928392;24;20205;-80
2021/01/24 03:12:26;;;;;;;22.27;17.38;;;2.80;98.30;;;;;;4920930;24;20208;-80
2021/01/24 03:14:34;;;;;;;23.98;17.40;;;2.80;98.30;;;;;;4921691;24;20225;-80
2021/01/24 03:16:44;;;;;;;24.23;15.65;;;2.80;98.30;;;;;;4928644;24;20212;-80
2021/01/24 03:18:55;;;;;;;24.17;15.57;;;2.70;98.30;;;;;;4928520;24;20224;-83
2021/01/24 03:34:25;;;;;;;24.45;16.60;;;2.80;98.30;;;;;;4907385;24;20303;-79
2021/01/24 03:54:23;;;;;;;25.70;18.33;;;2.80;98.30;;;;;;5096681;23;20403;-80
2021/01/24 04:08:17;;;;;;;;;;;;;;;;;;;;;
2021/01/24 04:11:36;;;;;;;25.38;18.08;;;2.50;98.30;;;;;;4831749;24;20218;-79
2021/01/24 04:14:16;;;;;;;24.73;17.70;;;2.60;98.30;;;;;;4804617;24;20202;-80
2021/01/24 04:16:45;;;;;;;24.35;17.67;;;2.50;98.30;;;;;;4780299;24;20210;-79
2021/01/24 04:19:28;;;;;;;25.23;18.00;;;2.40;98.30;;;;;;4802113;24;20225;-79
2021/01/24 04:22:14;;;;;;;25.98;17.85;;;2.40;98.30;;;;;;4794102;24;20335;-79
2021/01/24 04:24:53;;;;;;;20.95;16.52;;;2.40;98.30;;;;;;4823649;24;20213;-79
2021/01/24 04:27:17;;;;;;;25.98;18.42;;;2.30;98.30;;;;;;4913739;24;20855;-79
2021/01/24 04:32:22;;;;;;;24.08;16.98;;;2.30;98.30;;;;;;4899171;24;20652;-80
2021/01/24 04:35:23;;;;;;;23.65;17.92;;;2.40;98.30;;;;;;4904857;24;20221;-80
2021/01/24 05:07:46;;;;;;;27.90;18.60;;;2.40;98.30;;;;;;4920321;23;20204;-82
2021/01/24 05:10:40;;;;;;;27.83;20.70;;;2.40;98.30;;;;;;5019598;23;20213;-80
2021/01/24 05:13:08;;;;;;;26.17;19.58;;;2.40;98.30;;;;;;5067171;23;20587;-81
2021/01/24 05:15:17;;;;;;;27.52;19.27;;;2.30;98.30;;;;;;5075472;23;20384;-81
2021/01/24 05:17:42;;;;;;;25.17;17.88;;;2.20;98.30;;;;;;5075543;23;20282;-81
2021/01/24 05:23:05;;;;;;;25.73;18.92;;;2.10;98.30;;;;;;4989240;23;20213;-80
2021/01/24 05:25:44;;;;;;;29.35;18.10;;;2.20;98.30;;;;;;5073399;23;20212;-80
2021/01/24 05:32:42;;;;;;;;;;;;;;;;;;;;;
2021/01/24 05:35:01;;;;;;;29.40;20.67;;;2.10;98.30;;;;;;5075016;23;20521;-81
2021/01/24 05:37:29;;;;;;;26.98;18.73;;;2.20;98.30;;;;;;5075684;23;20200;-81
2021/01/24 05:40:06;;;;;;;28.75;19.58;;;2.20;98.30;;;;;;5075492;23;20302;-81
2021/01/24 05:42:45;;;;;;;27.20;19.10;;;2.20;98.30;;;;;;5074810;23;20291;-81
2021/01/24 05:45:08;;;;;;;28.80;19.52;;;2.30;98.30;;;;;;5057116;23;20208;-81
2021/01/24 05:48:07;;;;;;;27.42;18.90;;;2.40;98.30;;;;;;5075417;23;20865;-81
2021/01/24 05:51:29;;;;;;;;;;;;;;;;;;;;;
2021/01/24 05:57:08;;;;;;;29.73;19.02;;;2.70;98.30;;;;;;5074903;23;20723;-82
2021/01/24 05:59:33;;;;;;;24.08;16.08;;;2.80;98.30;;;;;;5075235;23;20239;-81
2021/01/24 06:04:29;;;;;;;25.73;19.08;;;2.90;98.30;;;;;;5065674;23;20679;-80
2021/01/24 06:06:52;;;;;;;26.15;16.35;;;2.90;98.30;;;;;;5074240;23;20672;-80
2021/01/24 06:09:15;;;;;;;27.15;16.40;;;2.90;98.30;;;;;;5074307;23;20200;-80
2021/01/24 06:11:28;;;;;;;25.15;15.70;;;3.00;98.30;;;;;;5075279;23;20203;-80
2021/01/24 06:14:26;;;;;;;28.95;18.67;;;3.10;98.30;;;;;;5073830;23;20212;-80
2021/01/24 06:17:24;;;;;;;26.88;18.10;;;3.10;98.30;;;;;;5074521;23;20580;-80
2021/01/24 06:19:55;;;;;;;26.92;17.75;;;3.10;98.30;;;;;;5064750;23;20706;-81
2021/01/24 06:25:55;;;;;;;21.90;16.08;;;3.20;98.30;;;;;;5075039;23;20660;-81
2021/01/24 06:28:16;;;;;;;23.50;15.60;;;3.20;98.30;;;;;;5075253;23;20204;-79
2021/01/24 06:31:15;;;;;;;23.17;17.45;;;3.30;98.30;;;;;;4976300;23;20799;-80
2021/01/24 06:41:15;;;;;;;22.00;16.48;;;3.20;98.30;;;;;;4821401;24;20219;-80
2021/01/24 06:44:43;;;;;;;25.00;17.55;;;3.20;98.30;;;;;;4885687;24;20213;-80
2021/01/24 06:51:48;;;;;;;25.85;18.58;;;3.20;98.30;;;;;;4831335;24;20719;-81
2021/01/24 06:57:36;;;;;;;26.83;18.42;;;3.30;98.30;;;;;;4883649;23;20662;-80
2021/01/24 07:02:56;;;;;;;24.55;17.95;;;3.20;98.30;;;;;;4967601;23;20207;-80
2021/01/24 07:05:29;;;;;;;24.52;17.73;;;3.20;98.30;;;;;;4976080;23;20207;-80
2021/01/24 07:08:25;;;;;;;30.83;17.50;;;3.10;98.30;;;;;;4951183;23;20203;-81
2021/01/24 07:11:41;;;;;;;;;;;;;;;;;;;;;
2021/01/24 07:17:41;;;;;;;29.38;20.00;;;3.20;98.30;;;;;;4964410;23;20223;-80
2021/01/24 07:19:48;;;;;;;26.42;17.15;;;3.20;98.30;;;;;;4976396;23;20290;-81
2021/01/24 07:32:45;;;;;;;32.55;19.25;;;2.90;98.30;;;;;;4889613;24;20285;-80
2021/01/24 07:34:56;;;;;;;29.23;19.73;;;2.60;98.30;;;;;;5000264;23;20294;-80
2021/01/24 07:37:23;;;;;;;27.88;19.65;;;2.70;98.30;;;;;;5054634;23;20215;-81
2021/01/24 07:40:35;;;;;;;30.08;19.05;;;2.70;98.30;;;;;;5046030;23;20319;-81
2021/01/24 07:43:52;;;;;;;31.25;21.38;;;2.60;98.30;;;;;;5074246;23;20588;-79
2021/01/24 07:46:17;;;;;;;28.02;19.65;;;2.80;98.30;;;;;;4996207;23;20679;-80
2021/01/24 07:48:40;;;;;;;28.35;20.00;;;2.90;98.30;;;;;;5073975;23;20243;-80
2021/01/24 07:51:19;;;;;;;30.50;21.15;;;2.90;98.30;;;;;;5063490;23;20878;-79
2021/01/24 07:53:38;;;;;;;28.98;18.85;;;2.90;98.30;;;;;;5073780;23;20295;-79
2021/01/24 07:56:01;;;;;;;26.27;19.13;;;2.90;98.30;;;;;;5073606;23;20207;-80
2021/01/24 07:58:24;;;;;;;27.38;19.23;;;2.90;98.30;;;;;;5073988;23;20231;-81
2021/01/24 08:00:51;;;;;;;24.08;20.10;;;3.00;98.30;;;;;;5074052;23;20238;-80
2021/01/24 08:03:05;;;;;;;28.02;19.20;;;3.00;98.30;;;;;;5073325;23;20537;-80
2021/01/24 08:05:15;;;;;;;24.80;16.48;;;3.00;98.30;;;;;;5074603;23;20287;-80
2021/01/24 08:14:40;;;;;;;;;;;;;;;;;;;;;
2021/01/24 08:44:13;;;;;;;26.05;18.80;;;2.80;98.30;;;;;;4862046;24;20559;-79
2021/01/24 08:50:34;;;;;;;32.85;22.65;;;2.50;98.30;;;;;;4778285;24;20267;-79
2021/01/24 08:53:09;;;;;;;29.38;21.15;;;2.50;98.30;;;;;;4931168;24;20224;-80
2021/01/24 08:55:59;;;;;;;28.92;21.50;;;2.40;98.30;;;;;;4908378;24;20295;-81
2021/01/24 08:58:53;;;;;;;27.67;20.00;;;2.50;98.30;;;;;;4899011;24;20217;-80
2021/01/24 09:01:21;;;;;;;26.80;18.38;;;2.50;98.30;;;;;;4931460;24;20284;-80
2021/01/24 09:03:46;;;;;;;23.65;16.02;;;2.50;98.30;;;;;;4970802;23;20210;-80
2021/01/24 09:06:13;;;;;;;25.52;18.02;;;2.40;98.30;;;;;;5010463;23;20285;-80
2021/01/24 09:08:59;;;;;;;25.38;17.77;;;2.40;98.30;;;;;;5010881;23;20239;-80
2021/01/24 09:24:04;;;;;;;28.00;20.35;;;2.60;98.30;;;;;;4795468;24;20343;-80
2021/01/24 09:26:45;;;;;;;30.67;22.38;;;2.60;98.30;;;;;;4893921;24;20214;-80
2021/01/24 14:33:15;;;;;;;27.48;16.75;;;3.90;98.30;;;;;;5101779;23;20206;-78
2021/01/24 14:35:18;;;;;;;35.10;20.63;;;3.90;98.30;;;;;;5111473;23;20211;-79
2021/01/24 14:37:20;;;;;;;33.22;21.23;;;3.90;98.30;;;;;;5109296;23;20539;-78
2021/01/24 14:39:22;;;;;;;29.90;20.05;;;3.90;98.30;;;;;;5109252;23;20207;-79
2021/01/24 14:41:25;;;;;;;31.80;18.98;;;3.80;98.30;;;;;;5109836;23;20208;-79
2021/01/24 14:43:27;;;;;;;28.27;18.80;;;3.90;98.30;;;;;;5109121;23;20767;-79
2021/01/24 14:45:29;;;;;;;31.88;20.80;;;3.90;98.30;;;;;;5109349;23;20215;-79
2021/01/24 14:47:31;;;;;;;32.58;19.38;;;3.90;98.30;;;;;;5101285;23;20212;-77
2021/01/24 14:49:34;;;;;;;30.75;20.33;;;3.90;98.30;;;;;;5102491;23;20211;-79
2021/01/24 14:51:36;;;;;;;28.25;18.10;;;3.80;98.30;;;;;;5110464;23;20214;-78
2021/01/24 14:53:38;;;;;;;32.58;20.13;;;3.90;98.30;;;;;;5107927;23;20207;-78
2021/01/24 14:55:41;;;;;;;28.33;18.58;;;3.80;98.30;;;;;;5109662;23;20230;-79
2021/01/24 14:57:43;;;;;;;30.92;19.40;;;3.80;98.30;;;;;;5108795;23;20231;-80
2021/01/24 14:59:45;;;;;;;28.65;18.10;;;3.70;98.30;;;;;;5100380;23;20227;-78
2021/01/24 15:01:47;;;;;;;28.92;18.92;;;3.60;98.30;;;;;;5100315;23;20258;-80
2021/01/24 15:03:49;;;;;;;29.27;17.95;;;3.50;98.30;;;;;;5107004;23;20242;-78
2021/01/24 15:05:52;;;;;;;29.02;16.95;;;3.40;98.30;;;;;;5095400;23;20214;-79
2021/01/24 15:07:56;;;;;;;26.95;19.30;;;3.30;98.30;;;;;;5102042;23;20207;-78
2021/01/24 15:09:58;;;;;;;23.65;15.68;;;3.20;98.30;;;;;;5102891;23;20512;-79
2021/01/24 15:12:00;;;;;;;26.77;19.08;;;3.20;98.30;;;;;;5103843;23;20600;-79
2021/01/24 15:14:02;;;;;;;27.75;18.75;;;3.10;98.30;;;;;;5104298;23;20214;-79
2021/01/24 15:16:05;;;;;;;26.45;18.58;;;2.90;98.30;;;;;;5096873;23;20230;-79
2021/01/24 15:18:08;;;;;;;25.88;18.42;;;2.90;98.30;;;;;;5104956;23;20218;-79
2021/01/24 15:20:12;;;;;;;30.20;19.35;;;2.80;98.30;;;;;;5106137;23;20203;-78
2021/01/24 15:22:15;;;;;;;29.35;18.30;;;2.80;98.30;;;;;;5111178;23;20207;-79
2021/01/24 15:24:17;;;;;;;48.05;29.08;;;2.80;98.30;;;;;;5101893;23;20227;-78
2021/01/24 15:26:19;;;;;;;37.83;24.02;;;2.70;98.30;;;;;;5101472;23;20230;-80
2021/01/24 15:28:21;;;;;;;34.00;21.65;;;2.70;98.30;;;;;;5105724;23;20207;-78
2021/01/24 15:30:24;;;;;;;30.02;22.75;;;2.70;98.30;;;;;;5107976;23;20211;-78
2021/01/24 15:32:26;;;;;;;30.52;21.38;;;2.70;98.30;;;;;;5108285;23;20211;-79
2021/01/24 15:34:42;;;;;;;28.48;18.58;;;2.60;98.30;;;;;;5104359;23;20492;-79
2021/01/24 15:40:28;;;;;;;28.73;19.80;;;2.70;98.30;;;;;;4818587;23;20208;-79
2021/01/24 15:42:31;;;;;;;30.25;19.23;;;2.70;98.30;;;;;;5075549;23;20279;-78
2021/01/24 15:44:33;;;;;;;27.02;18.30;;;2.70;98.30;;;;;;5067920;23;20212;-78
2021/01/24 15:46:37;;;;;;;30.10;19.25;;;2.70;98.30;;;;;;5075428;23;20279;-78
2021/01/24 15:48:39;;;;;;;27.92;17.55;;;2.80;98.30;;;;;;5075135;23;20239;-78
2021/01/24 15:50:41;;;;;;;29.13;19.17;;;2.80;98.30;;;;;;5067279;23;20678;-78
2021/01/24 15:52:44;;;;;;;28.95;20.35;;;2.80;98.30;;;;;;5067732;23;20278;-78
2021/01/24 15:54:46;;;;;;;28.00;18.83;;;2.90;98.30;;;;;;5075389;23;20254;-78
2021/01/24 15:56:49;;;;;;;28.85;19.48;;;2.90;98.30;;;;;;5074523;23;20215;-78
2021/01/24 15:58:51;;;;;;;25.52;16.33;;;2.90;98.30;;;;;;5067288;23;20208;-77
2021/01/24 16:00:53;;;;;;;28.67;19.25;;;3.00;98.30;;;;;;5074734;23;20204;-78
2021/01/24 16:02:55;;;;;;;29.83;20.27;;;3.00;98.30;;;;;;5074950;23;20200;-78
2021/01/24 16:04:57;;;;;;;34.00;21.33;;;3.00;98.30;;;;;;5074212;23;20203;-78
2021/01/24 16:06:59;;;;;;;32.22;18.88;;;3.00;98.30;;;;;;5074298;23;20603;-78
2021/01/24 16:09:02;;;;;;;28.88;18.98;;;3.00;98.30;;;;;;5074013;23;20204;-77
2021/01/24 16:11:05;;;;;;;30.65;19.40;;;3.00;98.30;;;;;;5075440;23;20825;-78
2021/01/24 16:13:09;;;;;;;35.10;23.52;;;3.00;98.30;;;;;;5075294;23;20208;-78
2021/01/24 16:15:12;;;;;;;31.73;20.23;;;2.90;98.30;;;;;;5075088;23;20284;-78
2021/01/24 16:17:14;;;;;;;32.47;22.83;;;2.90;98.30;;;;;;5075554;23;20243;-78
2021/01/24 16:19:17;;;;;;;33.63;22.10;;;3.10;98.30;;;;;;5067583;23;20212;-79
2021/01/24 16:21:21;;;;;;;32.10;23.52;;;3.10;98.30;;;;;;5075348;23;20243;-78
2021/01/24 16:23:24;;;;;;;34.38;20.75;;;3.10;98.30;;;;;;5075883;23;20208;-78
2021/01/24 16:25:26;;;;;;;30.42;20.17;;;3.10;98.30;;;;;;5075637;23;20208;-78
2021/01/24 16:27:31;;;;;;;30.73;21.13;;;3.10;98.30;;;;;;5075551;23;20235;-78
2021/01/24 16:30:05;;;;;;;34.63;22.40;;;3.10;98.30;;;;;;5075030;23;20204;-78
2021/01/24 16:32:07;;;;;;;38.60;26.38;;;3.20;98.30;;;;;;5075786;23;20212;-78
2021/01/24 16:34:09;;;;;;;35.65;21.55;;;3.30;98.30;;;;;;5084829;23;20200;-77
2021/01/24 16:36:11;;;;;;;41.33;23.55;;;3.30;98.30;;;;;;5080938;23;20733;-78
2021/01/24 16:38:13;;;;;;;35.22;25.23;;;3.30;98.30;;;;;;5068824;23;20786;-78
2021/01/24 16:40:18;;;;;;;39.35;27.48;;;3.30;98.30;;;;;;5076055;23;20220;-78
2021/01/24 16:42:46;;;;;;;41.58;24.35;;;3.30;98.30;;;;;;5065636;23;20795;-78
2021/01/24 16:45:11;;;;;;;38.70;25.20;;;3.10;98.30;;;;;;5076679;23;20200;-79
2021/01/24 16:47:15;;;;;;;40.35;27.65;;;3.00;98.30;;;;;;5062695;23;20207;-79
2021/01/24 16:49:20;;;;;;;37.75;23.05;;;3.00;98.30;;;;;;5077697;23;20200;-79
2021/01/24 16:51:22;;;;;;;46.53;31.33;;;3.00;98.30;;;;;;5078221;23;20204;-78
2021/01/24 16:53:27;;;;;;;46.38;29.70;;;2.90;98.30;;;;;;5078423;23;20259;-79
2021/01/24 16:55:29;;;;;;;38.78;26.30;;;2.90;98.30;;;;;;5077274;23;20520;-79
2021/01/24 17:03:05;;;;;;;35.03;24.67;;;2.70;98.30;;;;;;5066787;23;20218;-78
2021/01/24 17:05:09;;;;;;;32.40;23.95;;;2.70;98.30;;;;;;5077400;23;20201;-78
2021/01/24 17:07:11;;;;;;;36.20;23.40;;;2.70;98.30;;;;;;5078255;23;20211;-78
2021/01/24 17:09:34;;;;;;;32.92;23.45;;;2.70;98.30;;;;;;5077770;23;20270;-81
2021/01/24 17:11:42;;;;;;;32.88;19.60;;;2.70;98.30;;;;;;5077665;23;20196;-79
2021/01/24 17:16:16;;;;;;;33.17;21.63;;;2.80;98.30;;;;;;5003441;23;20742;-78
2021/01/24 17:18:19;;;;;;;35.47;24.60;;;2.80;98.30;;;;;;5049114;23;20208;-79
2021/01/24 17:20:22;;;;;;;40.13;27.40;;;2.80;98.30;;;;;;5077667;23;20258;-78
2021/01/24 17:22:24;;;;;;;43.70;28.27;;;2.70;98.30;;;;;;5077488;23;20199;-78
2021/01/24 17:24:26;;;;;;;34.53;23.20;;;2.80;98.30;;;;;;5069839;23;20735;-79
2021/01/24 17:26:38;;;;;;;43.17;28.25;;;2.80;98.30;;;;;;5069907;23;20218;-78
2021/01/24 17:28:40;;;;;;;40.03;25.35;;;2.80;98.30;;;;;;5077628;23;20207;-78
2021/01/24 17:31:24;;;;;;;45.45;29.73;;;2.80;98.30;;;;;;5078133;23;20514;-78
2021/01/24 17:34:14;;;;;;;42.80;28.23;;;2.80;98.30;;;;;;5067548;23;20204;-79
2021/01/24 17:36:40;;;;;;;39.13;28.70;;;2.70;98.30;;;;;;5078203;23;20521;-78
2021/01/24 17:38:42;;;;;;;37.85;22.65;;;2.70;98.30;;;;;;5078142;23;20836;-78
2021/01/24 17:41:11;;;;;;;39.97;27.77;;;2.80;98.30;;;;;;5077405;23;20239;-78
2021/01/24 17:43:26;;;;;;;41.08;29.23;;;2.80;98.30;;;;;;5078383;23;20232;-77
2021/01/24 17:49:04;;;;;;;37.30;27.42;;;2.80;98.30;;;;;;5041419;23;20208;-78
2021/01/24 17:51:31;;;;;;;42.88;28.65;;;2.80;98.30;;;;;;5076187;23;20263;-78
2021/01/24 17:53:42;;;;;;;44.47;32.13;;;2.80;98.30;;;;;;5001643;23;20236;-79
2021/01/24 17:55:44;;;;;;;47.22;29.10;;;2.80;98.30;;;;;;5054802;23;20283;-79
2021/01/24 17:57:49;;;;;;;41.95;27.20;;;2.80;98.30;;;;;;5068815;23;20285;-78
2021/01/24 17:59:51;;;;;;;44.22;31.90;;;2.90;98.30;;;;;;5074655;23;20215;-78
2021/01/24 18:01:53;;;;;;;43.15;29.95;;;2.90;98.30;;;;;;5074064;23;20303;-78
2021/01/24 18:03:56;;;;;;;43.63;29.15;;;2.90;98.30;;;;;;5074432;23;20204;-78
2021/01/24 18:05:58;;;;;;;39.08;27.85;;;2.80;98.30;;;;;;5056436;23;20626;-79
2021/01/24 18:08:00;;;;;;;39.53;24.20;;;2.90;98.30;;;;;;5049775;23;20208;-78
2021/01/24 18:10:03;;;;;;;43.83;28.85;;;3.00;98.30;;;;;;5050109;23;20553;-78
2021/01/24 18:12:09;;;;;;;43.88;28.40;;;3.00;98.30;;;;;;5051834;23;20685;-79
2021/01/24 18:14:12;;;;;;;37.47;27.02;;;3.00;98.30;;;;;;5051295;23;20755;-78
2021/01/24 18:16:14;;;;;;;39.13;27.77;;;3.00;98.30;;;;;;5042145;23;20236;-78
2021/01/24 18:18:49;;;;;;;40.15;24.98;;;3.00;98.30;;;;;;5049631;23;20901;-78
2021/01/24 18:20:53;;;;;;;37.28;27.00;;;3.00;98.30;;;;;;5049582;23;20985;-78
2021/01/24 18:22:55;;;;;;;36.45;23.00;;;3.10;98.30;;;;;;5050670;23;20208;-78
2021/01/24 18:24:58;;;;;;;36.17;22.58;;;3.10;98.30;;;;;;5051401;23;20215;-78
2021/01/24 18:27:00;;;;;;;43.45;28.65;;;3.00;98.30;;;;;;5049750;23;20201;-79
2021/01/24 18:29:02;;;;;;;42.63;28.95;;;3.10;98.30;;;;;;5041897;23;20220;-78
2021/01/24 18:31:05;;;;;;;40.00;26.30;;;3.10;98.30;;;;;;5050316;23;20208;-78
2021/01/24 18:33:07;;;;;;;42.47;24.58;;;3.10;98.30;;;;;;5071213;23;20216;-79
2021/01/24 18:35:10;;;;;;;42.55;25.25;;;3.10;98.30;;;;;;5074027;23;20311;-78
2021/01/24 18:37:13;;;;;;;36.75;24.20;;;3.20;98.30;;;;;;5075070;23;20582;-78
2021/01/24 18:39:15;;;;;;;41.58;27.33;;;3.20;98.30;;;;;;5073783;23;20263;-78
2021/01/24 18:41:17;;;;;;;40.70;27.33;;;3.20;98.30;;;;;;5076565;23;20216;-78
2021/01/24 18:43:20;;;;;;;39.67;25.48;;;3.20;98.30;;;;;;5068604;23;20289;-79
2021/01/24 18:45:22;;;;;;;37.55;24.60;;;3.30;98.30;;;;;;5076265;23;20719;-79
2021/01/24 18:47:26;;;;;;;43.10;25.88;;;3.30;98.30;;;;;;5077539;23;20208;-79
2021/01/24 18:49:29;;;;;;;43.25;26.15;;;3.30;98.30;;;;;;5077407;23;20204;-79
2021/01/24 18:51:38;;;;;;;45.70;30.75;;;3.30;98.30;;;;;;5076748;23;20200;-79
2021/01/24 18:54:01;;;;;;;50.72;31.02;;;3.30;98.30;;;;;;5076942;23;20200;-79
2021/01/24 18:56:15;;;;;;;43.35;31.45;;;3.30;98.30;;;;;;5075633;23;20644;-79
2021/01/24 18:58:17;;;;;;;46.53;31.45;;;3.20;98.30;;;;;;5076745;23;20212;-79
2021/01/24 19:00:23;;;;;;;42.55;28.67;;;3.20;98.30;;;;;;5068740;23;20212;-79
2021/01/24 19:02:25;;;;;;;42.30;26.55;;;3.10;98.30;;;;;;5069315;23;20212;-79
2021/01/24 19:04:27;;;;;;;51.63;33.40;;;3.10;98.30;;;;;;5076433;23;20702;-79
2021/01/24 19:06:29;;;;;;;42.67;27.85;;;3.10;98.30;;;;;;5067598;23;20212;-78
2021/01/24 19:08:32;;;;;;;44.13;27.52;;;3.10;98.30;;;;;;5076155;23;20271;-79
2021/01/24 19:10:35;;;;;;;46.28;28.85;;;3.00;98.30;;;;;;5075710;23;20254;-79
2021/01/24 19:12:37;;;;;;;44.85;29.90;;;3.10;98.30;;;;;;5075895;23;20238;-78
2021/01/24 19:14:40;;;;;;;47.65;30.05;;;3.00;98.30;;;;;;5068238;23;20208;-79
2021/01/24 19:16:44;;;;;;;43.97;25.35;;;3.10;98.30;;;;;;5067746;23;20215;-79
2021/01/24 19:18:46;;;;;;;42.47;26.38;;;3.10;98.30;;;;;;5075446;23;20204;-78
2021/01/24 19:21:04;;;;;;;42.95;28.10;;;3.10;98.30;;;;;;5076788;23;20281;-79
2021/01/24 19:23:06;;;;;;;45.35;25.92;;;3.20;98.30;;;;;;5076515;23;20204;-79
2021/01/24 19:25:09;;;;;;;44.92;30.20;;;3.10;98.30;;;;;;5077039;23;20634;-78
2021/01/24 19:27:12;;;;;;;44.78;29.98;;;3.10;98.30;;;;;;5076679;23;20204;-78
2021/01/24 19:29:16;;;;;;;36.10;22.42;;;3.00;98.30;;;;;;5068485;23;20212;-79
2021/01/24 19:31:21;;;;;;;36.55;23.55;;;3.10;98.30;;;;;;5076686;23;20691;-79
2021/01/24 19:33:26;;;;;;;41.53;26.27;;;3.10;98.30;;;;;;5076554;23;20684;-79
2021/01/24 19:35:29;;;;;;;37.42;22.52;;;3.10;98.30;;;;;;5076866;23;20215;-78
2021/01/24 19:37:38;;;;;;;39.53;24.63;;;3.10;98.30;;;;;;5077265;23;20204;-79
2021/01/24 19:39:42;;;;;;;31.45;21.23;;;3.00;98.30;;;;;;5076071;23;20262;-78
2021/01/24 19:41:57;;;;;;;36.67;22.38;;;3.00;98.30;;;;;;5076837;23;20565;-78
2021/01/24 19:44:08;;;;;;;32.97;22.23;;;3.00;98.30;;;;;;5076672;23;20208;-78
2021/01/24 19:46:10;;;;;;;29.48;19.27;;;2.90;98.30;;;;;;5077235;23;20211;-79
2021/01/24 19:48:13;;;;;;;34.70;22.15;;;2.90;98.30;;;;;;5068879;23;20396;-79
2021/01/24 19:50:15;;;;;;;31.60;21.25;;;2.90;98.30;;;;;;5068429;23;20296;-78
2021/01/24 19:52:17;;;;;;;34.80;21.88;;;2.90;98.30;;;;;;5077618;23;20413;-78
2021/01/24 19:54:29;;;;;;;32.65;18.00;;;2.90;98.30;;;;;;5069492;23;20231;-78
2021/01/24 19:56:31;;;;;;;37.97;22.88;;;2.90;98.30;;;;;;5068887;23;20207;-79
2021/01/24 19:58:33;;;;;;;29.30;17.88;;;2.90;98.30;;;;;;5068604;23;20260;-79
2021/01/24 20:00:36;;;;;;;31.20;20.17;;;2.90;98.30;;;;;;5076503;23;20220;-79
2021/01/24 20:02:39;;;;;;;33.65;20.60;;;3.00;98.30;;;;;;5077318;23;20533;-79
2021/01/24 20:04:53;;;;;;;31.65;20.98;;;2.90;98.30;;;;;;5076459;23;20295;-78
2021/01/24 20:06:55;;;;;;;29.65;20.50;;;2.90;98.30;;;;;;5076512;23;20204;-79
2021/01/24 20:08:57;;;;;;;29.63;19.70;;;3.00;98.30;;;;;;5076550;23;20287;-79
2021/01/24 20:10:59;;;;;;;27.10;17.00;;;3.00;98.30;;;;;;5076866;23;20235;-79
2021/01/24 20:13:05;;;;;;;25.33;17.65;;;3.00;98.30;;;;;;5076733;23;20203;-78
2021/01/24 20:15:09;;;;;;;28.20;19.42;;;2.90;98.30;;;;;;5076426;23;20228;-78
2021/01/24 20:17:13;;;;;;;26.77;18.42;;;2.90;98.30;;;;;;5077179;23;20200;-78
2021/01/24 20:19:15;;;;;;;30.40;21.35;;;2.90;98.30;;;;;;5075926;23;20531;-78
2021/01/24 20:21:19;;;;;;;28.02;19.48;;;2.90;98.30;;;;;;5076827;23;20693;-78
2021/01/24 20:23:21;;;;;;;25.20;17.17;;;2.90;98.30;;;;;;5078020;23;20215;-78
2021/01/24 20:25:23;;;;;;;25.45;16.45;;;2.90;98.30;;;;;;5078124;23;20207;-79
2021/01/24 20:27:25;;;;;;;23.75;17.10;;;2.90;98.30;;;;;;5077725;23;20205;-78
2021/01/24 20:29:27;;;;;;;24.25;17.55;;;2.90;98.30;;;;;;5077555;23;20204;-78
2021/01/24 20:31:29;;;;;;;27.73;17.55;;;2.90;98.30;;;;;;5077661;23;20192;-78
2021/01/24 20:33:33;;;;;;;24.48;17.00;;;2.90;98.30;;;;;;5077788;23;20204;-78
2021/01/24 20:35:35;;;;;;;25.20;17.30;;;2.90;98.30;;;;;;5077835;23;20204;-78
2021/01/24 20:37:37;;;;;;;25.33;17.88;;;2.90;98.30;;;;;;5077222;23;20203;-78
2021/01/24 20:39:39;;;;;;;25.80;16.55;;;2.90;98.30;;;;;;5076923;23;20206;-78
2021/01/24 20:41:41;;;;;;;25.35;14.85;;;2.90;98.30;;;;;;5069744;23;20207;-78
2021/01/24 20:43:43;;;;;;;23.95;16.90;;;2.90;98.30;;;;;;5077246;23;20200;-78
2021/01/24 20:45:45;;;;;;;21.90;13.55;;;2.90;98.30;;;;;;5077465;23;20290;-78